sensor_id;sensor_type;location;lat;lon;timestamp;P1;durP1;ratioP1;P2;durP2;ratioP2
59922;SDS011;45778;51.142;3.732;2022-09-09T00:02:02;5.55;;;2.33;;
59922;SDS011;45778;51.142;3.732;2022-09-09T00:10:04;6.13;;;2.20;;
59922;SDS011;45778;51.142;3.732;2022-09-09T00:21:30;5.67;;;1.57;;
59922;SDS011;45778;51.142;3.732;2022-09-09T00:24:00;3.40;;;1.70;;
59922;SDS011;45778;51.142;3.732;2022-09-09T00:26:48;8.82;;;1.55;;
59922;SDS011;45778;51.142;3.732;2022-09-09T00:32:04;5.72;;;2.05;;
59922;SDS011;45778;51.142;3.732;2022-09-09T00:34:47;4.03;;;1.65;;
59922;SDS011;45778;51.142;3.732;2022-09-09T00:37:19;5.53;;;2.03;;
59922;SDS011;45778;51.142;3.732;2022-09-09T00:39:46;3.78;;;1.80;;
59922;SDS011;45778;51.142;3.732;2022-09-09T00:44:39;13.32;;;2.30;;
59922;SDS011;45778;51.142;3.732;2022-09-09T00:47:38;7.43;;;2.10;;
59922;SDS011;45778;51.142;3.732;2022-09-09T00:56:20;10.68;;;2.85;;
59922;SDS011;45778;51.142;3.732;2022-09-09T01:01:45;8.02;;;2.30;;
59922;SDS011;45778;51.142;3.732;2022-09-09T01:04:16;4.35;;;1.95;;
59922;SDS011;45778;51.142;3.732;2022-09-09T01:06:52;6.00;;;2.25;;
59922;SDS011;45778;51.142;3.732;2022-09-09T01:17:15;6.65;;;1.90;;
59922;SDS011;45778;51.142;3.732;2022-09-09T01:25:29;5.28;;;1.67;;
59922;SDS011;45778;51.142;3.732;2022-09-09T01:28:27;5.32;;;1.70;;
59922;SDS011;45778;51.142;3.732;2022-09-09T01:30:54;9.73;;;2.10;;
59922;SDS011;45778;51.142;3.732;2022-09-09T01:33:21;6.43;;;1.75;;
59922;SDS011;45778;51.142;3.732;2022-09-09T01:35:52;11.23;;;2.78;;
59922;SDS011;45778;51.142;3.732;2022-09-09T01:38:25;7.28;;;2.05;;
59922;SDS011;45778;51.142;3.732;2022-09-09T01:40:53;10.07;;;2.53;;
59922;SDS011;45778;51.142;3.732;2022-09-09T01:43:22;6.47;;;2.17;;
59922;SDS011;45778;51.142;3.732;2022-09-09T01:45:50;6.40;;;2.13;;
59922;SDS011;45778;51.142;3.732;2022-09-09T01:48:19;5.15;;;2.00;;
59922;SDS011;45778;51.142;3.732;2022-09-09T01:50:46;10.13;;;2.10;;
59922;SDS011;45778;51.142;3.732;2022-09-09T01:53:12;4.47;;;1.88;;
59922;SDS011;45778;51.142;3.732;2022-09-09T01:55:42;7.78;;;2.00;;
59922;SDS011;45778;51.142;3.732;2022-09-09T01:58:43;6.03;;;2.10;;
59922;SDS011;45778;51.142;3.732;2022-09-09T02:01:35;7.97;;;1.90;;
59922;SDS011;45778;51.142;3.732;2022-09-09T02:04:11;6.60;;;1.80;;
59922;SDS011;45778;51.142;3.732;2022-09-09T02:06:49;4.93;;;1.95;;
59922;SDS011;45778;51.142;3.732;2022-09-09T02:09:21;6.65;;;2.13;;
59922;SDS011;45778;51.142;3.732;2022-09-09T02:11:49;10.10;;;2.03;;
59922;SDS011;45778;51.142;3.732;2022-09-09T02:14:41;7.43;;;1.70;;
59922;SDS011;45778;51.142;3.732;2022-09-09T02:17:11;6.20;;;1.73;;
59922;SDS011;45778;51.142;3.732;2022-09-09T02:19:51;5.00;;;1.88;;
59922;SDS011;45778;51.142;3.732;2022-09-09T02:22:31;8.27;;;1.95;;
59922;SDS011;45778;51.142;3.732;2022-09-09T02:24:59;5.10;;;1.75;;
59922;SDS011;45778;51.142;3.732;2022-09-09T02:27:25;8.15;;;2.08;;
59922;SDS011;45778;51.142;3.732;2022-09-09T02:29:51;7.72;;;1.92;;
59922;SDS011;45778;51.142;3.732;2022-09-09T02:32:19;8.10;;;1.75;;
59922;SDS011;45778;51.142;3.732;2022-09-09T02:34:52;5.72;;;1.88;;
59922;SDS011;45778;51.142;3.732;2022-09-09T02:37:23;6.30;;;2.22;;
59922;SDS011;45778;51.142;3.732;2022-09-09T02:39:53;7.53;;;1.50;;
59922;SDS011;45778;51.142;3.732;2022-09-09T02:42:19;8.85;;;2.20;;
59922;SDS011;45778;51.142;3.732;2022-09-09T02:44:45;7.32;;;1.48;;
59922;SDS011;45778;51.142;3.732;2022-09-09T02:47:25;8.75;;;2.20;;
59922;SDS011;45778;51.142;3.732;2022-09-09T02:50:17;7.25;;;2.38;;
59922;SDS011;45778;51.142;3.732;2022-09-09T02:53:12;3.65;;;1.25;;
59922;SDS011;45778;51.142;3.732;2022-09-09T02:56:04;10.20;;;1.67;;
59922;SDS011;45778;51.142;3.732;2022-09-09T02:58:34;6.75;;;1.85;;
59922;SDS011;45778;51.142;3.732;2022-09-09T03:01:00;8.02;;;1.88;;
59922;SDS011;45778;51.142;3.732;2022-09-09T03:03:27;7.80;;;1.58;;
59922;SDS011;45778;51.142;3.732;2022-09-09T03:05:54;6.30;;;1.60;;
59922;SDS011;45778;51.142;3.732;2022-09-09T03:08:19;7.68;;;1.60;;
59922;SDS011;45778;51.142;3.732;2022-09-09T03:10:45;7.65;;;1.73;;
59922;SDS011;45778;51.142;3.732;2022-09-09T03:13:11;8.30;;;1.55;;
59922;SDS011;45778;51.142;3.732;2022-09-09T03:15:40;6.53;;;1.60;;
59922;SDS011;45778;51.142;3.732;2022-09-09T03:18:05;6.88;;;1.48;;
59922;SDS011;45778;51.142;3.732;2022-09-09T03:20:31;10.20;;;1.90;;
59922;SDS011;45778;51.142;3.732;2022-09-09T03:22:58;8.63;;;1.63;;
59922;SDS011;45778;51.142;3.732;2022-09-09T03:25:24;8.55;;;1.73;;
59922;SDS011;45778;51.142;3.732;2022-09-09T03:27:51;8.63;;;1.70;;
59922;SDS011;45778;51.142;3.732;2022-09-09T03:30:19;7.53;;;1.35;;
59922;SDS011;45778;51.142;3.732;2022-09-09T03:32:52;8.60;;;1.67;;
59922;SDS011;45778;51.142;3.732;2022-09-09T03:35:18;8.32;;;1.42;;
59922;SDS011;45778;51.142;3.732;2022-09-09T03:37:44;10.13;;;2.00;;
59922;SDS011;45778;51.142;3.732;2022-09-09T03:40:10;9.68;;;3.00;;
59922;SDS011;45778;51.142;3.732;2022-09-09T03:42:36;7.93;;;1.92;;
59922;SDS011;45778;51.142;3.732;2022-09-09T03:45:03;11.95;;;2.25;;
59922;SDS011;45778;51.142;3.732;2022-09-09T03:47:30;11.98;;;2.08;;
59922;SDS011;45778;51.142;3.732;2022-09-09T03:49:56;4.90;;;1.77;;
59922;SDS011;45778;51.142;3.732;2022-09-09T03:52:21;8.63;;;1.85;;
59922;SDS011;45778;51.142;3.732;2022-09-09T03:54:50;12.25;;;2.08;;
59922;SDS011;45778;51.142;3.732;2022-09-09T03:57:16;10.73;;;2.08;;
59922;SDS011;45778;51.142;3.732;2022-09-09T03:59:42;9.15;;;1.80;;
59922;SDS011;45778;51.142;3.732;2022-09-09T04:02:08;7.00;;;1.90;;
59922;SDS011;45778;51.142;3.732;2022-09-09T04:04:34;9.20;;;2.50;;
59922;SDS011;45778;51.142;3.732;2022-09-09T04:07:00;12.73;;;2.00;;
59922;SDS011;45778;51.142;3.732;2022-09-09T04:09:26;13.77;;;3.00;;
59922;SDS011;45778;51.142;3.732;2022-09-09T04:11:51;12.68;;;2.58;;
59922;SDS011;45778;51.142;3.732;2022-09-09T04:14:18;9.98;;;1.98;;
59922;SDS011;45778;51.142;3.732;2022-09-09T04:16:44;9.63;;;2.40;;
59922;SDS011;45778;51.142;3.732;2022-09-09T04:19:11;13.07;;;2.47;;
59922;SDS011;45778;51.142;3.732;2022-09-09T04:21:38;14.82;;;1.90;;
59922;SDS011;45778;51.142;3.732;2022-09-09T04:24:05;10.02;;;2.08;;
59922;SDS011;45778;51.142;3.732;2022-09-09T04:26:31;12.85;;;2.03;;
59922;SDS011;45778;51.142;3.732;2022-09-09T04:28:57;11.18;;;2.40;;
59922;SDS011;45778;51.142;3.732;2022-09-09T04:31:23;14.20;;;2.20;;
59922;SDS011;45778;51.142;3.732;2022-09-09T04:33:52;11.88;;;2.13;;
59922;SDS011;45778;51.142;3.732;2022-09-09T04:36:18;12.98;;;2.13;;
59922;SDS011;45778;51.142;3.732;2022-09-09T04:38:46;15.07;;;2.17;;
59922;SDS011;45778;51.142;3.732;2022-09-09T04:41:13;8.55;;;2.63;;
59922;SDS011;45778;51.142;3.732;2022-09-09T04:43:39;10.75;;;2.45;;
59922;SDS011;45778;51.142;3.732;2022-09-09T04:46:05;12.27;;;2.50;;
59922;SDS011;45778;51.142;3.732;2022-09-09T04:48:31;11.23;;;2.30;;
59922;SDS011;45778;51.142;3.732;2022-09-09T04:50:58;7.25;;;1.80;;
59922;SDS011;45778;51.142;3.732;2022-09-09T04:53:26;13.10;;;2.97;;
59922;SDS011;45778;51.142;3.732;2022-09-09T04:55:53;8.80;;;2.10;;
59922;SDS011;45778;51.142;3.732;2022-09-09T04:58:26;14.15;;;2.13;;
59922;SDS011;45778;51.142;3.732;2022-09-09T05:00:52;9.07;;;2.70;;
59922;SDS011;45778;51.142;3.732;2022-09-09T05:03:17;9.85;;;2.25;;
59922;SDS011;45778;51.142;3.732;2022-09-09T05:05:44;12.00;;;2.60;;
59922;SDS011;45778;51.142;3.732;2022-09-09T05:08:09;13.90;;;2.80;;
59922;SDS011;45778;51.142;3.732;2022-09-09T05:10:36;11.20;;;2.05;;
59922;SDS011;45778;51.142;3.732;2022-09-09T05:13:03;9.85;;;1.90;;
59922;SDS011;45778;51.142;3.732;2022-09-09T05:15:30;11.60;;;2.47;;
59922;SDS011;45778;51.142;3.732;2022-09-09T05:17:57;7.43;;;2.58;;
59922;SDS011;45778;51.142;3.732;2022-09-09T05:20:24;9.65;;;2.25;;
59922;SDS011;45778;51.142;3.732;2022-09-09T05:22:52;14.95;;;2.70;;
59922;SDS011;45778;51.142;3.732;2022-09-09T05:25:19;14.15;;;2.80;;
59922;SDS011;45778;51.142;3.732;2022-09-09T05:27:45;14.05;;;2.58;;
59922;SDS011;45778;51.142;3.732;2022-09-09T05:30:10;10.43;;;2.30;;
59922;SDS011;45778;51.142;3.732;2022-09-09T05:32:36;13.38;;;2.88;;
59922;SDS011;45778;51.142;3.732;2022-09-09T05:35:02;16.50;;;3.15;;
59922;SDS011;45778;51.142;3.732;2022-09-09T05:37:30;13.35;;;3.20;;
59922;SDS011;45778;51.142;3.732;2022-09-09T05:39:56;13.40;;;3.50;;
59922;SDS011;45778;51.142;3.732;2022-09-09T05:42:22;10.35;;;3.28;;
59922;SDS011;45778;51.142;3.732;2022-09-09T05:44:48;13.32;;;3.95;;
59922;SDS011;45778;51.142;3.732;2022-09-09T05:47:15;12.02;;;4.03;;
59922;SDS011;45778;51.142;3.732;2022-09-09T05:49:42;17.23;;;4.00;;
59922;SDS011;45778;51.142;3.732;2022-09-09T05:52:07;9.65;;;3.10;;
59922;SDS011;45778;51.142;3.732;2022-09-09T05:54:34;8.05;;;3.08;;
59922;SDS011;45778;51.142;3.732;2022-09-09T05:57:00;11.15;;;3.17;;
59922;SDS011;45778;51.142;3.732;2022-09-09T05:59:26;14.60;;;3.45;;
59922;SDS011;45778;51.142;3.732;2022-09-09T06:01:52;15.60;;;2.95;;
59922;SDS011;45778;51.142;3.732;2022-09-09T06:04:18;15.60;;;4.18;;
59922;SDS011;45778;51.142;3.732;2022-09-09T06:06:45;15.15;;;3.70;;
59922;SDS011;45778;51.142;3.732;2022-09-09T06:09:11;13.18;;;3.28;;
59922;SDS011;45778;51.142;3.732;2022-09-09T06:11:37;12.93;;;2.92;;
59922;SDS011;45778;51.142;3.732;2022-09-09T06:14:04;9.63;;;2.95;;
59922;SDS011;45778;51.142;3.732;2022-09-09T06:16:30;16.67;;;3.33;;
59922;SDS011;45778;51.142;3.732;2022-09-09T06:19:00;17.15;;;3.38;;
59922;SDS011;45778;51.142;3.732;2022-09-09T06:21:37;9.50;;;2.80;;
59922;SDS011;45778;51.142;3.732;2022-09-09T06:24:03;14.10;;;3.60;;
59922;SDS011;45778;51.142;3.732;2022-09-09T06:26:30;8.40;;;2.75;;
59922;SDS011;45778;51.142;3.732;2022-09-09T06:28:58;15.15;;;3.45;;
59922;SDS011;45778;51.142;3.732;2022-09-09T06:31:25;11.32;;;3.63;;
59922;SDS011;45778;51.142;3.732;2022-09-09T06:33:55;14.50;;;4.22;;
59922;SDS011;45778;51.142;3.732;2022-09-09T06:38:48;15.98;;;3.65;;
59922;SDS011;45778;51.142;3.732;2022-09-09T06:41:17;15.60;;;3.17;;
59922;SDS011;45778;51.142;3.732;2022-09-09T06:43:47;12.65;;;3.72;;
59922;SDS011;45778;51.142;3.732;2022-09-09T06:46:14;9.30;;;3.75;;
59922;SDS011;45778;51.142;3.732;2022-09-09T06:48:41;10.88;;;3.28;;
59922;SDS011;45778;51.142;3.732;2022-09-09T06:51:19;14.88;;;3.90;;
59922;SDS011;45778;51.142;3.732;2022-09-09T06:53:46;17.65;;;4.68;;
59922;SDS011;45778;51.142;3.732;2022-09-09T06:58:41;18.20;;;3.70;;
59922;SDS011;45778;51.142;3.732;2022-09-09T07:01:11;14.07;;;2.90;;
59922;SDS011;45778;51.142;3.732;2022-09-09T07:03:38;9.48;;;3.33;;
59922;SDS011;45778;51.142;3.732;2022-09-09T07:06:05;11.60;;;2.78;;
59922;SDS011;45778;51.142;3.732;2022-09-09T07:08:32;9.15;;;3.17;;
59922;SDS011;45778;51.142;3.732;2022-09-09T07:11:05;9.80;;;2.30;;
59922;SDS011;45778;51.142;3.732;2022-09-09T07:13:32;12.43;;;2.72;;
59922;SDS011;45778;51.142;3.732;2022-09-09T07:16:07;7.50;;;1.63;;
59922;SDS011;45778;51.142;3.732;2022-09-09T07:18:34;7.03;;;1.67;;
59922;SDS011;45778;51.142;3.732;2022-09-09T07:21:00;12.05;;;2.10;;
59922;SDS011;45778;51.142;3.732;2022-09-09T07:23:27;12.77;;;2.08;;
59922;SDS011;45778;51.142;3.732;2022-09-09T07:25:53;9.52;;;2.22;;
59922;SDS011;45778;51.142;3.732;2022-09-09T07:28:19;7.05;;;1.92;;
59922;SDS011;45778;51.142;3.732;2022-09-09T07:30:53;20.92;;;2.90;;
59922;SDS011;45778;51.142;3.732;2022-09-09T07:33:19;9.45;;;2.60;;
59922;SDS011;45778;51.142;3.732;2022-09-09T07:35:45;8.63;;;2.28;;
59922;SDS011;45778;51.142;3.732;2022-09-09T07:38:11;5.50;;;1.77;;
59922;SDS011;45778;51.142;3.732;2022-09-09T07:40:36;8.80;;;2.38;;
59922;SDS011;45778;51.142;3.732;2022-09-09T07:43:02;9.27;;;2.17;;
59922;SDS011;45778;51.142;3.732;2022-09-09T07:45:28;12.70;;;2.50;;
59922;SDS011;45778;51.142;3.732;2022-09-09T07:47:55;7.80;;;2.38;;
59922;SDS011;45778;51.142;3.732;2022-09-09T07:50:21;8.00;;;2.10;;
59922;SDS011;45778;51.142;3.732;2022-09-09T07:52:48;4.78;;;1.80;;
59922;SDS011;45778;51.142;3.732;2022-09-09T07:55:15;12.32;;;2.22;;
59922;SDS011;45778;51.142;3.732;2022-09-09T07:57:41;5.93;;;1.70;;
59922;SDS011;45778;51.142;3.732;2022-09-09T08:00:06;8.45;;;1.52;;
59922;SDS011;45778;51.142;3.732;2022-09-09T08:02:32;8.40;;;1.88;;
59922;SDS011;45778;51.142;3.732;2022-09-09T08:04:58;8.23;;;2.17;;
59922;SDS011;45778;51.142;3.732;2022-09-09T08:07:24;4.40;;;1.60;;
59922;SDS011;45778;51.142;3.732;2022-09-09T08:09:49;7.95;;;1.58;;
59922;SDS011;45778;51.142;3.732;2022-09-09T08:12:15;6.07;;;1.63;;
59922;SDS011;45778;51.142;3.732;2022-09-09T08:14:41;6.40;;;1.60;;
59922;SDS011;45778;51.142;3.732;2022-09-09T08:17:07;8.57;;;2.05;;
59922;SDS011;45778;51.142;3.732;2022-09-09T08:19:33;4.85;;;1.73;;
59922;SDS011;45778;51.142;3.732;2022-09-09T08:22:02;8.65;;;1.88;;
59922;SDS011;45778;51.142;3.732;2022-09-09T08:24:28;8.13;;;1.60;;
59922;SDS011;45778;51.142;3.732;2022-09-09T08:26:54;8.77;;;2.35;;
59922;SDS011;45778;51.142;3.732;2022-09-09T08:29:21;7.72;;;1.27;;
59922;SDS011;45778;51.142;3.732;2022-09-09T08:31:47;8.90;;;1.88;;
59922;SDS011;45778;51.142;3.732;2022-09-09T08:34:13;4.57;;;1.50;;
59922;SDS011;45778;51.142;3.732;2022-09-09T08:36:41;7.07;;;1.95;;
59922;SDS011;45778;51.142;3.732;2022-09-09T08:39:08;10.60;;;1.60;;
59922;SDS011;45778;51.142;3.732;2022-09-09T08:41:57;7.13;;;1.42;;
59922;SDS011;45778;51.142;3.732;2022-09-09T08:50:42;5.43;;;1.15;;
59922;SDS011;45778;51.142;3.732;2022-09-09T08:55:53;8.23;;;1.63;;
59922;SDS011;45778;51.142;3.732;2022-09-09T08:58:27;8.50;;;1.77;;
59922;SDS011;45778;51.142;3.732;2022-09-09T09:12:11;3.60;;;1.10;;
59922;SDS011;45778;51.142;3.732;2022-09-09T09:14:34;9.68;;;1.70;;
59922;SDS011;45778;51.142;3.732;2022-09-09T09:19:32;8.55;;;2.35;;
59922;SDS011;45778;51.142;3.732;2022-09-09T09:22:18;7.57;;;2.20;;
59922;SDS011;45778;51.142;3.732;2022-09-09T09:30:34;6.20;;;1.52;;
59922;SDS011;45778;51.142;3.732;2022-09-09T09:35:50;6.32;;;1.27;;
59922;SDS011;45778;51.142;3.732;2022-09-09T09:38:20;5.70;;;1.60;;
59922;SDS011;45778;51.142;3.732;2022-09-09T09:40:48;3.38;;;1.23;;
59922;SDS011;45778;51.142;3.732;2022-09-09T09:43:35;4.47;;;1.40;;
59922;SDS011;45778;51.142;3.732;2022-09-09T09:46:05;4.20;;;1.30;;
59922;SDS011;45778;51.142;3.732;2022-09-09T09:48:44;3.95;;;0.93;;
59922;SDS011;45778;51.142;3.732;2022-09-09T09:51:12;4.85;;;0.90;;
59922;SDS011;45778;51.142;3.732;2022-09-09T09:53:41;8.75;;;1.15;;
59922;SDS011;45778;51.142;3.732;2022-09-09T09:56:09;4.93;;;1.27;;
59922;SDS011;45778;51.142;3.732;2022-09-09T09:58:48;7.05;;;1.38;;
59922;SDS011;45778;51.142;3.732;2022-09-09T10:01:49;3.95;;;1.00;;
59922;SDS011;45778;51.142;3.732;2022-09-09T10:06:45;7.25;;;1.10;;
59922;SDS011;45778;51.142;3.732;2022-09-09T10:09:27;5.07;;;1.40;;
59922;SDS011;45778;51.142;3.732;2022-09-09T10:14:39;4.45;;;1.27;;
59922;SDS011;45778;51.142;3.732;2022-09-09T10:22:34;2.72;;;0.80;;
59922;SDS011;45778;51.142;3.732;2022-09-09T10:30:19;5.75;;;1.50;;
59922;SDS011;45778;51.142;3.732;2022-09-09T10:33:30;4.60;;;1.65;;
59922;SDS011;45778;51.142;3.732;2022-09-09T10:36:03;2.70;;;1.10;;
59922;SDS011;45778;51.142;3.732;2022-09-09T10:38:40;8.20;;;1.33;;
59922;SDS011;45778;51.142;3.732;2022-09-09T10:41:23;4.00;;;0.75;;
59922;SDS011;45778;51.142;3.732;2022-09-09T10:57:21;2.45;;;0.77;;
59922;SDS011;45778;51.142;3.732;2022-09-09T10:59:58;5.28;;;0.90;;
59922;SDS011;45778;51.142;3.732;2022-09-09T11:02:30;3.78;;;0.63;;
59922;SDS011;45778;51.142;3.732;2022-09-09T11:08:41;3.08;;;0.63;;
59922;SDS011;45778;51.142;3.732;2022-09-09T11:11:37;2.70;;;0.90;;
59922;SDS011;45778;51.142;3.732;2022-09-09T11:14:02;4.43;;;1.20;;
59922;SDS011;45778;51.142;3.732;2022-09-09T11:16:47;1.90;;;0.63;;
59922;SDS011;45778;51.142;3.732;2022-09-09T11:19:26;3.55;;;0.90;;
59922;SDS011;45778;51.142;3.732;2022-09-09T11:21:53;3.47;;;0.80;;
59922;SDS011;45778;51.142;3.732;2022-09-09T11:41:16;4.18;;;1.00;;
59922;SDS011;45778;51.142;3.732;2022-09-09T11:43:48;5.43;;;0.88;;
59922;SDS011;45778;51.142;3.732;2022-09-09T11:46:21;5.35;;;0.95;;
59922;SDS011;45778;51.142;3.732;2022-09-09T11:48:59;4.22;;;1.00;;
59922;SDS011;45778;51.142;3.732;2022-09-09T11:51:30;5.60;;;0.95;;
59922;SDS011;45778;51.142;3.732;2022-09-09T11:54:00;2.70;;;0.80;;
59922;SDS011;45778;51.142;3.732;2022-09-09T11:56:49;4.70;;;1.15;;
59922;SDS011;45778;51.142;3.732;2022-09-09T11:59:22;3.42;;;0.90;;
59922;SDS011;45778;51.142;3.732;2022-09-09T12:01:57;5.65;;;0.82;;
59922;SDS011;45778;51.142;3.732;2022-09-09T12:12:46;4.05;;;0.73;;
59922;SDS011;45778;51.142;3.732;2022-09-09T12:20:17;5.15;;;0.70;;
59922;SDS011;45778;51.142;3.732;2022-09-09T12:23:00;0.98;;;0.70;;
59922;SDS011;45778;51.142;3.732;2022-09-09T12:34:35;3.65;;;1.00;;
59922;SDS011;45778;51.142;3.732;2022-09-09T12:37:23;3.08;;;1.00;;
59922;SDS011;45778;51.142;3.732;2022-09-09T12:42:45;5.40;;;1.00;;
59922;SDS011;45778;51.142;3.732;2022-09-09T12:45:18;1.92;;;0.60;;
59922;SDS011;45778;51.142;3.732;2022-09-09T12:47:59;7.18;;;1.25;;
59922;SDS011;45778;51.142;3.732;2022-09-09T12:50:35;2.95;;;0.90;;
59922;SDS011;45778;51.142;3.732;2022-09-09T12:53:05;4.80;;;0.90;;
59922;SDS011;45778;51.142;3.732;2022-09-09T12:55:36;2.85;;;0.90;;
59922;SDS011;45778;51.142;3.732;2022-09-09T12:58:03;1.13;;;0.70;;
59922;SDS011;45778;51.142;3.732;2022-09-09T13:00:31;2.75;;;0.80;;
59922;SDS011;45778;51.142;3.732;2022-09-09T13:02:59;2.67;;;0.80;;
59922;SDS011;45778;51.142;3.732;2022-09-09T13:05:28;2.97;;;0.65;;
59922;SDS011;45778;51.142;3.732;2022-09-09T13:08:09;3.88;;;1.02;;
59922;SDS011;45778;51.142;3.732;2022-09-09T13:13:29;2.17;;;1.02;;
59922;SDS011;45778;51.142;3.732;2022-09-09T13:16:00;2.95;;;0.80;;
59922;SDS011;45778;51.142;3.732;2022-09-09T13:18:30;3.50;;;0.93;;
59922;SDS011;45778;51.142;3.732;2022-09-09T13:21:01;4.40;;;0.80;;
59922;SDS011;45778;51.142;3.732;2022-09-09T13:23:31;3.05;;;0.88;;
59922;SDS011;45778;51.142;3.732;2022-09-09T13:26:19;1.85;;;1.08;;
59922;SDS011;45778;51.142;3.732;2022-09-09T13:28:51;3.35;;;1.08;;
59922;SDS011;45778;51.142;3.732;2022-09-09T13:31:27;3.92;;;1.50;;
59922;SDS011;45778;51.142;3.732;2022-09-09T13:33:55;4.85;;;1.25;;
59922;SDS011;45778;51.142;3.732;2022-09-09T13:36:31;4.95;;;1.23;;
59922;SDS011;45778;51.142;3.732;2022-09-09T13:39:00;3.65;;;1.30;;
59922;SDS011;45778;51.142;3.732;2022-09-09T13:41:35;5.68;;;1.13;;
59922;SDS011;45778;51.142;3.732;2022-09-09T13:44:06;4.13;;;0.93;;
59922;SDS011;45778;51.142;3.732;2022-09-09T13:46:42;3.83;;;1.23;;
59922;SDS011;45778;51.142;3.732;2022-09-09T13:51:41;3.72;;;1.38;;
59922;SDS011;45778;51.142;3.732;2022-09-09T13:54:15;1.42;;;0.70;;
59922;SDS011;45778;51.142;3.732;2022-09-09T13:56:42;2.63;;;0.90;;
59922;SDS011;45778;51.142;3.732;2022-09-09T13:59:10;1.73;;;1.00;;
59922;SDS011;45778;51.142;3.732;2022-09-09T14:01:37;3.33;;;1.73;;
59922;SDS011;45778;51.142;3.732;2022-09-09T14:04:03;5.82;;;1.42;;
59922;SDS011;45778;51.142;3.732;2022-09-09T14:06:33;3.42;;;1.35;;
59922;SDS011;45778;51.142;3.732;2022-09-09T14:09:07;2.58;;;1.50;;
59922;SDS011;45778;51.142;3.732;2022-09-09T14:11:36;4.57;;;1.60;;
59922;SDS011;45778;51.142;3.732;2022-09-09T14:14:02;3.60;;;1.75;;
59922;SDS011;45778;51.142;3.732;2022-09-09T14:16:28;5.93;;;1.52;;
59922;SDS011;45778;51.142;3.732;2022-09-09T14:18:54;3.35;;;1.08;;
59922;SDS011;45778;51.142;3.732;2022-09-09T14:21:24;2.22;;;0.82;;
59922;SDS011;45778;51.142;3.732;2022-09-09T14:23:50;1.70;;;0.60;;
59922;SDS011;45778;51.142;3.732;2022-09-09T14:26:17;3.63;;;0.57;;
59922;SDS011;45778;51.142;3.732;2022-09-09T14:28:45;1.73;;;0.50;;
59922;SDS011;45778;51.142;3.732;2022-09-09T14:31:11;2.13;;;0.50;;
59922;SDS011;45778;51.142;3.732;2022-09-09T14:33:38;3.10;;;0.60;;
59922;SDS011;45778;51.142;3.732;2022-09-09T14:36:04;2.83;;;1.00;;
59922;SDS011;45778;51.142;3.732;2022-09-09T14:38:30;3.20;;;1.00;;
59922;SDS011;45778;51.142;3.732;2022-09-09T14:40:59;2.47;;;1.15;;
59922;SDS011;45778;51.142;3.732;2022-09-09T14:43:28;4.05;;;1.65;;
59922;SDS011;45778;51.142;3.732;2022-09-09T14:45:54;3.33;;;1.65;;
59922;SDS011;45778;51.142;3.732;2022-09-09T14:48:20;2.88;;;1.13;;
59922;SDS011;45778;51.142;3.732;2022-09-09T14:50:46;2.67;;;1.17;;
59922;SDS011;45778;51.142;3.732;2022-09-09T14:53:11;4.40;;;1.13;;
59922;SDS011;45778;51.142;3.732;2022-09-09T14:55:37;2.83;;;1.40;;
59922;SDS011;45778;51.142;3.732;2022-09-09T14:58:04;4.35;;;1.80;;
59922;SDS011;45778;51.142;3.732;2022-09-09T15:00:31;7.85;;;2.65;;
59922;SDS011;45778;51.142;3.732;2022-09-09T15:02:56;4.22;;;1.70;;
59922;SDS011;45778;51.142;3.732;2022-09-09T15:05:22;5.57;;;1.75;;
59922;SDS011;45778;51.142;3.732;2022-09-09T15:07:49;3.85;;;1.35;;
59922;SDS011;45778;51.142;3.732;2022-09-09T15:10:15;4.28;;;1.60;;
59922;SDS011;45778;51.142;3.732;2022-09-09T15:12:42;6.45;;;1.75;;
59922;SDS011;45778;51.142;3.732;2022-09-09T15:15:08;3.50;;;1.33;;
59922;SDS011;45778;51.142;3.732;2022-09-09T15:17:34;3.28;;;1.60;;
59922;SDS011;45778;51.142;3.732;2022-09-09T15:20:01;6.10;;;2.22;;
59922;SDS011;45778;51.142;3.732;2022-09-09T15:22:27;4.18;;;1.98;;
59922;SDS011;45778;51.142;3.732;2022-09-09T15:24:53;6.30;;;2.38;;
59922;SDS011;45778;51.142;3.732;2022-09-09T15:27:19;7.50;;;2.20;;
59922;SDS011;45778;51.142;3.732;2022-09-09T15:29:44;8.48;;;2.47;;
59922;SDS011;45778;51.142;3.732;2022-09-09T15:32:10;4.45;;;2.50;;
59922;SDS011;45778;51.142;3.732;2022-09-09T15:34:36;7.28;;;2.80;;
59922;SDS011;45778;51.142;3.732;2022-09-09T15:37:01;4.53;;;2.55;;
59922;SDS011;45778;51.142;3.732;2022-09-09T15:39:27;6.25;;;3.20;;
59922;SDS011;45778;51.142;3.732;2022-09-09T15:41:52;6.78;;;3.20;;
59922;SDS011;45778;51.142;3.732;2022-09-09T15:44:18;8.73;;;3.70;;
59922;SDS011;45778;51.142;3.732;2022-09-09T15:46:45;5.78;;;2.20;;
59922;SDS011;45778;51.142;3.732;2022-09-09T15:49:18;4.70;;;1.65;;
59922;SDS011;45778;51.142;3.732;2022-09-09T15:51:50;5.22;;;2.10;;
59922;SDS011;45778;51.142;3.732;2022-09-09T15:54:18;3.58;;;1.77;;
59922;SDS011;45778;51.142;3.732;2022-09-09T15:56:47;2.83;;;1.10;;
59922;SDS011;45778;51.142;3.732;2022-09-09T15:59:22;3.60;;;1.00;;
59922;SDS011;45778;51.142;3.732;2022-09-09T16:01:49;2.17;;;0.90;;
59922;SDS011;45778;51.142;3.732;2022-09-09T16:04:18;2.58;;;0.85;;
59922;SDS011;45778;51.142;3.732;2022-09-09T16:06:54;4.22;;;0.82;;
59922;SDS011;45778;51.142;3.732;2022-09-09T16:09:30;1.83;;;0.80;;
59922;SDS011;45778;51.142;3.732;2022-09-09T16:11:56;2.55;;;1.02;;
59922;SDS011;45778;51.142;3.732;2022-09-09T16:14:23;3.80;;;1.45;;
59922;SDS011;45778;51.142;3.732;2022-09-09T16:16:50;1.73;;;1.08;;
59922;SDS011;45778;51.142;3.732;2022-09-09T16:19:17;3.63;;;1.30;;
59922;SDS011;45778;51.142;3.732;2022-09-09T16:21:44;3.42;;;1.25;;
59922;SDS011;45778;51.142;3.732;2022-09-09T16:24:12;2.38;;;1.58;;
59922;SDS011;45778;51.142;3.732;2022-09-09T16:26:40;6.35;;;1.63;;
59922;SDS011;45778;51.142;3.732;2022-09-09T16:29:10;4.85;;;2.03;;
59922;SDS011;45778;51.142;3.732;2022-09-09T16:31:39;5.95;;;2.22;;
59922;SDS011;45778;51.142;3.732;2022-09-09T16:34:06;3.67;;;2.20;;
59922;SDS011;45778;51.142;3.732;2022-09-09T16:36:33;9.48;;;3.08;;
59922;SDS011;45778;51.142;3.732;2022-09-09T16:39:01;5.93;;;3.45;;
59922;SDS011;45778;51.142;3.732;2022-09-09T16:41:30;6.22;;;4.03;;
59922;SDS011;45778;51.142;3.732;2022-09-09T16:43:57;9.27;;;3.95;;
59922;SDS011;45778;51.142;3.732;2022-09-09T16:46:25;7.88;;;4.63;;
59922;SDS011;45778;51.142;3.732;2022-09-09T16:48:52;4.65;;;3.17;;
59922;SDS011;45778;51.142;3.732;2022-09-09T16:51:27;6.43;;;3.25;;
59922;SDS011;45778;51.142;3.732;2022-09-09T16:53:58;7.90;;;4.03;;
59922;SDS011;45778;51.142;3.732;2022-09-09T16:56:26;6.95;;;4.07;;
59922;SDS011;45778;51.142;3.732;2022-09-09T16:58:54;8.75;;;4.28;;
59922;SDS011;45778;51.142;3.732;2022-09-09T17:01:22;7.00;;;3.90;;
59922;SDS011;45778;51.142;3.732;2022-09-09T17:03:52;5.25;;;3.53;;
59922;SDS011;45778;51.142;3.732;2022-09-09T17:06:21;8.13;;;4.20;;
59922;SDS011;45778;51.142;3.732;2022-09-09T17:08:53;6.85;;;4.50;;
59922;SDS011;45778;51.142;3.732;2022-09-09T17:11:19;7.97;;;5.25;;
59922;SDS011;45778;51.142;3.732;2022-09-09T17:13:45;8.00;;;5.20;;
59922;SDS011;45778;51.142;3.732;2022-09-09T17:16:12;8.98;;;5.82;;
59922;SDS011;45778;51.142;3.732;2022-09-09T17:18:40;9.80;;;4.75;;
59922;SDS011;45778;51.142;3.732;2022-09-09T17:21:07;10.15;;;4.45;;
59922;SDS011;45778;51.142;3.732;2022-09-09T17:23:39;10.05;;;4.00;;
59922;SDS011;45778;51.142;3.732;2022-09-09T17:26:06;6.00;;;3.42;;
59922;SDS011;45778;51.142;3.732;2022-09-09T17:28:35;6.40;;;3.33;;
59922;SDS011;45778;51.142;3.732;2022-09-09T17:31:01;6.88;;;3.30;;
59922;SDS011;45778;51.142;3.732;2022-09-09T17:33:29;3.92;;;2.47;;
59922;SDS011;45778;51.142;3.732;2022-09-09T17:36:06;4.22;;;2.30;;
59922;SDS011;45778;51.142;3.732;2022-09-09T17:38:40;5.85;;;2.45;;
59922;SDS011;45778;51.142;3.732;2022-09-09T17:41:17;4.30;;;1.90;;